createdAt,value
2022-12-18T00:01:16.450Z,-3.91
2022-12-18T00:03:45.390Z,-3.44
2022-12-18T00:06:17.698Z,-3.00
2022-12-18T00:08:46.142Z,-3.79
2022-12-18T00:11:16.366Z,-3.53
2022-12-18T00:13:44.913Z,-3.58
2022-12-18T00:16:14.931Z,-3.81
2022-12-18T00:18:43.606Z,-3.77
2022-12-18T00:21:12.673Z,-3.57
2022-12-18T00:23:43.349Z,-3.20
2022-12-18T00:26:13.291Z,-3.57
2022-12-18T00:28:44.794Z,-3.30
2022-12-18T00:31:13.955Z,-3.49
2022-12-18T00:33:42.492Z,-3.25
2022-12-18T00:36:13.027Z,-3.80
2022-12-18T00:38:43.017Z,-3.77
2022-12-18T00:41:12.162Z,-3.59
2022-12-18T00:43:40.172Z,-3.29
2022-12-18T00:46:08.760Z,-3.49
2022-12-18T00:48:37.828Z,-3.71
2022-12-18T00:51:05.938Z,-3.61
2022-12-18T00:53:36.146Z,-3.95
2022-12-18T00:56:06.279Z,-3.87
2022-12-18T00:58:37.356Z,-3.69
2022-12-18T01:01:06.423Z,-3.84
2022-12-18T01:03:36.465Z,-3.85
2022-12-18T01:06:08.060Z,-3.74
2022-12-18T01:08:36.308Z,-3.61
2022-12-18T01:11:11.594Z,-3.88
2022-12-18T01:13:40.447Z,-3.91
2022-12-18T01:16:10.058Z,-3.80
2022-12-18T01:18:38.363Z,-4.00
2022-12-18T01:21:08.426Z,-3.50
2022-12-18T01:23:39.196Z,-4.08
2022-12-18T01:26:08.481Z,-3.93
2022-12-18T01:28:38.830Z,-4.44
2022-12-18T01:31:16.330Z,-3.90
2022-12-18T01:33:44.629Z,-3.99
2022-12-18T01:36:17.139Z,-4.34
2022-12-18T01:38:45.425Z,-4.01
2022-12-18T01:41:13.669Z,-4.10
2022-12-18T01:43:50.986Z,-3.88
2022-12-18T01:46:20.589Z,-3.98
2022-12-18T01:48:50.068Z,-4.34
2022-12-18T01:51:18.424Z,-3.99
2022-12-18T01:53:47.318Z,-3.98
2022-12-18T01:56:16.865Z,-4.00
2022-12-18T01:58:50.057Z,-4.03
2022-12-18T02:01:20.073Z,-4.32
2022-12-18T02:03:48.203Z,-3.83
2022-12-18T02:06:19.180Z,-3.99
2022-12-18T02:08:53.593Z,-3.95
2022-12-18T02:11:26.570Z,-4.32
2022-12-18T02:14:02.713Z,-4.23
2022-12-18T02:16:37.040Z,-3.79
2022-12-18T02:19:07.982Z,-4.56
2022-12-18T02:21:39.160Z,-4.39
2022-12-18T02:24:18.312Z,-4.09
2022-12-18T02:26:50.974Z,-4.01
2022-12-18T02:29:24.983Z,-3.88
2022-12-18T02:31:54.861Z,-4.30
2022-12-18T02:34:24.564Z,-3.85
2022-12-18T02:36:53.867Z,-4.26
2022-12-18T02:39:24.198Z,-4.08
2022-12-18T02:42:03.541Z,-4.67
2022-12-18T02:44:31.697Z,-4.25
2022-12-18T02:47:00.146Z,-4.56
2022-12-18T02:49:33.780Z,-4.63
2022-12-18T02:52:07.634Z,-4.40
2022-12-18T02:54:44.870Z,-4.50
2022-12-18T02:57:17.887Z,-4.36
2022-12-18T02:59:51.725Z,-4.57
2022-12-18T03:02:23.957Z,-4.63
2022-12-18T03:04:57.057Z,-4.31
2022-12-18T03:07:28.853Z,-4.47
2022-12-18T03:10:00.243Z,-4.74
2022-12-18T03:12:32.422Z,-4.48
2022-12-18T03:15:03.110Z,-4.79
2022-12-18T03:17:33.160Z,-4.92
2022-12-18T03:20:04.633Z,-4.92
2022-12-18T03:22:36.181Z,-4.65
2022-12-18T03:25:07.362Z,-4.67
2022-12-18T03:27:40.879Z,-4.71
2022-12-18T03:30:13.617Z,-4.87
2022-12-18T03:32:44.672Z,-5.39
2022-12-18T03:35:15.683Z,-4.82
2022-12-18T03:37:44.195Z,-4.44
2022-12-18T03:40:12.698Z,-4.60
2022-12-18T03:42:47.385Z,-4.79
2022-12-18T03:45:21.154Z,-4.57
2022-12-18T03:47:58.065Z,-4.68
2022-12-18T03:50:29.828Z,-4.60
2022-12-18T03:53:02.549Z,-4.99
2022-12-18T03:55:34.579Z,-4.81
2022-12-18T03:58:09.542Z,-5.22
2022-12-18T04:00:50.546Z,-4.70
2022-12-18T04:03:25.414Z,-4.98
2022-12-18T04:05:56.894Z,-4.98
2022-12-18T04:08:26.780Z,-4.83
2022-12-18T04:11:05.930Z,-5.18
2022-12-18T04:13:38.254Z,-4.90
2022-12-18T04:16:15.596Z,-4.91
2022-12-18T04:18:46.133Z,-4.88
2022-12-18T04:21:16.159Z,-4.83
2022-12-18T04:23:44.951Z,-5.29
2022-12-18T04:26:14.573Z,-5.12
2022-12-18T04:29:00.499Z,-5.17
2022-12-18T04:31:30.563Z,-4.70
2022-12-18T04:33:58.887Z,-4.97
2022-12-18T04:36:27.095Z,-4.93
2022-12-18T04:38:55.471Z,-4.96
2022-12-18T04:41:23.785Z,-4.91
2022-12-18T04:43:54.369Z,-5.13
2022-12-18T04:46:23.989Z,-5.06
2022-12-18T04:48:52.099Z,-4.85
2022-12-18T04:51:26.095Z,-4.64
2022-12-18T04:53:54.927Z,-4.88
2022-12-18T04:56:22.986Z,-4.66
2022-12-18T04:58:51.051Z,-4.77
2022-12-18T05:01:20.042Z,-4.88
2022-12-18T05:03:49.632Z,-4.75
2022-12-18T05:06:17.820Z,-4.60
2022-12-18T05:08:45.972Z,-4.73
2022-12-18T05:11:16.778Z,-4.67
2022-12-18T05:13:45.478Z,-4.66
2022-12-18T05:16:14.093Z,-4.87
2022-12-18T05:18:42.619Z,-4.80
2022-12-18T05:21:12.080Z,-5.08
2022-12-18T05:23:40.459Z,-4.84
2022-12-18T05:26:09.044Z,-4.79
2022-12-18T05:28:38.039Z,-4.96
2022-12-18T05:31:07.070Z,-4.61
2022-12-18T05:33:36.547Z,-4.73
2022-12-18T05:36:06.041Z,-4.71
2022-12-18T05:38:36.832Z,-4.77
2022-12-18T05:41:05.344Z,-5.05
2022-12-18T05:43:33.948Z,-4.80
2022-12-18T05:46:05.735Z,-4.92
2022-12-18T05:48:34.032Z,-5.05
2022-12-18T05:51:06.092Z,-4.91
2022-12-18T05:53:36.174Z,-4.81
2022-12-18T05:56:05.520Z,-4.88
2022-12-18T05:58:33.895Z,-4.62
2022-12-18T06:01:08.355Z,-4.90
2022-12-18T06:03:36.515Z,-4.89
2022-12-18T06:06:04.887Z,-4.86
2022-12-18T06:08:33.082Z,-4.96
2022-12-18T06:11:02.900Z,-4.91
2022-12-18T06:13:31.241Z,-5.21
2022-12-18T06:15:59.397Z,-5.02
2022-12-18T06:18:27.565Z,-4.97
2022-12-18T06:20:58.637Z,-5.02
2022-12-18T06:23:26.921Z,-5.20
2022-12-18T06:25:55.197Z,-4.99
2022-12-18T06:28:24.728Z,-5.28
2022-12-18T06:30:54.209Z,-5.07
2022-12-18T06:33:22.433Z,-5.03
2022-12-18T06:35:50.754Z,-5.15
2022-12-18T06:38:18.930Z,-4.90
2022-12-18T06:40:47.105Z,-5.13
2022-12-18T06:43:15.498Z,-5.09
2022-12-18T06:45:45.015Z,-5.06
2022-12-18T06:48:13.211Z,-5.17
2022-12-18T06:50:44.309Z,-4.98
2022-12-18T06:53:12.406Z,-4.98
2022-12-18T06:55:40.636Z,-5.00
2022-12-18T06:58:09.771Z,-4.97
2022-12-18T07:00:39.653Z,-4.77
2022-12-18T07:03:09.433Z,-4.53
2022-12-18T07:05:41.745Z,-4.85
2022-12-18T07:08:10.118Z,-4.58
2022-12-18T07:10:47.400Z,-4.85
2022-12-18T07:13:16.356Z,-4.52
2022-12-18T07:15:44.558Z,-4.59
2022-12-18T07:18:14.869Z,-4.84
2022-12-18T07:20:43.525Z,-4.77
2022-12-18T07:23:11.542Z,-4.80
2022-12-18T07:25:40.519Z,-4.77
2022-12-18T07:28:11.657Z,-4.54
2022-12-18T07:30:43.863Z,-4.90
2022-12-18T07:33:11.975Z,-4.77
2022-12-18T07:35:41.520Z,-4.51
2022-12-18T07:38:09.749Z,-5.07
2022-12-18T07:40:37.897Z,-4.54
2022-12-18T07:43:05.957Z,-4.71
2022-12-18T07:45:34.067Z,-4.76
2022-12-18T07:48:02.188Z,-4.63
2022-12-18T07:50:30.250Z,-4.62
2022-12-18T07:52:59.890Z,-4.95
2022-12-18T07:55:28.498Z,-4.64
2022-12-18T07:58:01.182Z,-4.85
2022-12-18T08:00:29.573Z,-4.61
2022-12-18T08:02:57.883Z,-4.75
2022-12-18T08:05:26.285Z,-4.52
2022-12-18T08:07:55.004Z,-4.41
2022-12-18T08:10:24.569Z,-4.50
2022-12-18T08:12:53.059Z,-4.91
2022-12-18T08:15:21.087Z,-4.60
2022-12-18T08:17:50.004Z,-4.67
2022-12-18T08:20:19.530Z,-4.57
2022-12-18T08:22:47.614Z,-4.60
2022-12-18T08:25:15.848Z,-4.66
2022-12-18T08:27:45.412Z,-4.60
2022-12-18T08:30:13.904Z,-4.10
2022-12-18T08:32:42.060Z,-4.70
2022-12-18T08:35:12.782Z,-4.45
2022-12-18T08:37:41.035Z,-4.45
2022-12-18T08:40:11.446Z,-4.26
2022-12-18T08:42:57.066Z,-4.60
2022-12-18T08:45:27.402Z,-4.55
2022-12-18T08:47:56.012Z,-4.41
2022-12-18T08:50:24.072Z,-4.61
2022-12-18T08:52:52.414Z,-4.45
2022-12-18T08:55:20.867Z,-4.53
2022-12-18T08:57:50.444Z,-4.51
2022-12-18T09:00:18.839Z,-4.02
2022-12-18T09:02:48.432Z,-4.35
2022-12-18T09:05:17.593Z,-4.54
2022-12-18T09:07:45.602Z,-4.47
2022-12-18T09:10:14.565Z,-3.98
2022-12-18T09:12:42.645Z,-4.13
2022-12-18T09:15:11.412Z,-4.11
2022-12-18T09:17:39.511Z,-4.03
2022-12-18T09:20:10.092Z,-4.07
2022-12-18T09:22:38.399Z,-4.10
2022-12-18T09:25:08.853Z,-3.91
2022-12-18T09:27:37.165Z,-3.98
2022-12-18T09:30:06.042Z,-4.17
2022-12-18T09:32:34.309Z,-3.77
2022-12-18T09:35:02.790Z,-3.55
2022-12-18T09:37:32.933Z,-4.18
2022-12-18T09:40:04.065Z,-4.41
2022-12-18T09:42:32.569Z,-3.99
2022-12-18T09:45:03.309Z,-3.83
2022-12-18T09:47:33.256Z,-4.00
2022-12-18T09:50:06.046Z,-3.99
2022-12-18T09:52:38.207Z,-4.13
2022-12-18T09:55:11.893Z,-3.94
2022-12-18T09:57:45.883Z,-3.98
2022-12-18T10:00:18.414Z,-3.65
2022-12-18T10:02:47.370Z,-3.90
2022-12-18T10:05:16.547Z,-4.06
2022-12-18T10:07:59.410Z,-4.23
2022-12-18T10:10:40.534Z,-3.70
2022-12-18T10:13:13.020Z,-4.15
2022-12-18T10:15:44.075Z,-3.98
2022-12-18T10:18:23.922Z,-4.13
2022-12-18T10:20:54.240Z,-4.01
2022-12-18T10:23:28.649Z,-4.23
2022-12-18T10:26:02.129Z,-4.07
2022-12-18T10:28:31.755Z,-4.44
2022-12-18T10:31:00.706Z,-4.08
2022-12-18T10:33:31.173Z,-4.04
2022-12-18T10:35:59.394Z,-4.17
2022-12-18T10:38:29.740Z,-3.80
2022-12-18T10:40:59.152Z,-3.91
2022-12-18T10:43:28.343Z,-4.25
2022-12-18T10:46:13.801Z,-4.59
2022-12-18T10:48:43.583Z,-4.33
2022-12-18T10:51:12.947Z,-4.42
2022-12-18T10:53:44.684Z,-4.44
2022-12-18T10:56:13.097Z,-4.13
2022-12-18T10:58:41.824Z,-4.42
2022-12-18T11:01:13.355Z,-4.53
2022-12-18T11:03:44.393Z,-4.38
2022-12-18T11:06:13.396Z,-4.39
2022-12-18T11:08:43.968Z,-4.31
2022-12-18T11:11:18.643Z,-4.23
2022-12-18T11:13:54.835Z,-4.41
2022-12-18T11:16:23.329Z,-3.98
2022-12-18T11:18:51.692Z,-4.09
2022-12-18T11:21:20.047Z,-4.30
2022-12-18T11:23:52.689Z,-4.51
2022-12-18T11:26:22.588Z,-4.26
2022-12-18T11:28:54.983Z,-4.19
2022-12-18T11:31:25.654Z,-4.49
2022-12-18T11:36:50.336Z,-4.78
2022-12-18T11:39:22.470Z,-4.47
2022-12-18T11:42:13.353Z,-4.77
2022-12-18T11:44:45.116Z,-4.35
2022-12-18T11:47:18.083Z,-4.56
2022-12-18T11:49:47.920Z,-4.76
2022-12-18T11:52:19.522Z,-4.64
2022-12-18T11:54:49.490Z,-4.47
2022-12-18T11:57:28.124Z,-4.46
2022-12-18T11:59:59.341Z,-4.17
2022-12-18T12:02:39.581Z,-4.45
2022-12-18T12:05:17.908Z,-4.36
2022-12-18T12:07:56.954Z,-4.29
2022-12-18T12:10:37.646Z,-4.26
2022-12-18T12:13:15.720Z,-4.38
2022-12-18T12:15:49.776Z,-4.79
2022-12-18T12:18:24.237Z,-4.52
2022-12-18T12:20:56.866Z,-4.33
2022-12-18T12:23:30.214Z,-4.37
2022-12-18T12:26:03.689Z,-4.11
2022-12-18T12:28:57.988Z,-4.26
2022-12-18T12:31:34.847Z,-4.44
2022-12-18T12:34:10.460Z,-4.53
2022-12-18T12:36:45.080Z,-4.54
2022-12-18T12:39:16.462Z,-4.61
2022-12-18T12:42:05.064Z,-4.83
2022-12-18T12:44:35.020Z,-4.58
2022-12-18T12:47:09.682Z,-4.68
2022-12-18T12:49:40.942Z,-4.95
2022-12-18T12:52:13.411Z,-4.59
2022-12-18T12:54:42.530Z,-4.71
2022-12-18T12:57:15.197Z,-4.63
2022-12-18T12:59:50.695Z,-4.39
2022-12-18T13:02:22.958Z,-4.33
2022-12-18T13:04:58.796Z,-4.14
2022-12-18T13:07:31.850Z,-4.10
2022-12-18T13:10:26.803Z,-4.21
2022-12-18T13:12:57.119Z,-4.02
2022-12-18T13:15:27.548Z,-4.22
2022-12-18T13:18:13.939Z,-4.19
2022-12-18T13:20:45.635Z,-4.79
2022-12-18T13:23:37.981Z,-4.32
2022-12-18T13:26:28.107Z,-4.57
2022-12-18T13:29:05.399Z,-4.48
2022-12-18T13:31:57.680Z,-4.28
2022-12-18T13:34:29.452Z,-4.46
2022-12-18T13:37:00.681Z,-4.56
2022-12-18T13:39:35.874Z,-4.46
2022-12-18T13:42:36.523Z,-4.68
2022-12-18T13:45:24.006Z,-4.57
2022-12-18T13:47:53.804Z,-4.91
2022-12-18T13:50:24.715Z,-4.74
2022-12-18T13:52:54.001Z,-4.62
2022-12-18T13:55:23.321Z,-4.71
2022-12-18T13:57:51.614Z,-4.40
2022-12-18T14:00:26.565Z,-4.41
2022-12-18T14:02:57.232Z,-4.49
2022-12-18T14:05:26.021Z,-4.53
2022-12-18T14:07:58.639Z,-4.34
2022-12-18T14:10:45.607Z,-4.50
2022-12-18T14:13:18.231Z,-4.61
2022-12-18T14:15:50.998Z,-4.51
2022-12-18T14:18:22.890Z,-4.60
2022-12-18T14:20:53.265Z,-4.40
2022-12-18T14:23:31.935Z,-4.46
2022-12-18T14:26:05.413Z,-4.33
2022-12-18T14:28:34.395Z,-4.69
2022-12-18T14:31:02.585Z,-4.56
2022-12-18T14:33:32.190Z,-4.67
2022-12-18T14:36:01.754Z,-4.38
2022-12-18T14:38:31.004Z,-4.22
2022-12-18T14:41:00.145Z,-4.21
2022-12-18T14:43:28.934Z,-4.50
2022-12-18T14:45:57.463Z,-4.87
2022-12-18T14:48:34.594Z,-5.17
2022-12-18T14:51:05.712Z,-4.62
2022-12-18T14:53:39.212Z,-5.05
2022-12-18T14:56:17.007Z,-4.92
2022-12-18T14:58:49.818Z,-4.36
2022-12-18T15:01:22.121Z,-4.35
2022-12-18T15:03:52.837Z,-4.55
2022-12-18T15:06:28.060Z,-4.83
2022-12-18T15:08:57.266Z,-5.11
2022-12-18T15:11:28.011Z,-5.21
2022-12-18T15:13:56.416Z,-5.45
2022-12-18T15:16:24.816Z,-4.62
2022-12-18T15:18:53.511Z,-4.67
2022-12-18T15:21:22.579Z,-4.29
2022-12-18T15:23:53.559Z,-4.66
2022-12-18T15:26:30.066Z,-5.01
2022-12-18T15:28:59.700Z,-5.13
2022-12-18T15:31:31.903Z,-5.00
2022-12-18T15:34:14.800Z,-4.92
2022-12-18T15:36:43.242Z,-4.90
2022-12-18T15:39:14.912Z,-4.76
2022-12-18T15:42:03.806Z,-5.11
2022-12-18T15:44:32.123Z,-4.98
2022-12-18T15:47:00.739Z,-4.69
2022-12-18T15:49:29.040Z,-4.54
2022-12-18T15:51:59.018Z,-4.76
2022-12-18T15:54:46.005Z,-4.66
2022-12-18T15:57:27.625Z,-5.01
2022-12-18T15:59:59.576Z,-4.78
2022-12-18T16:02:29.452Z,-4.75
2022-12-18T16:04:58.564Z,-4.76
2022-12-18T16:07:30.588Z,-5.46
2022-12-18T16:10:02.371Z,-5.13
2022-12-18T16:12:32.379Z,-4.82
2022-12-18T16:15:01.736Z,-5.11
2022-12-18T16:17:31.995Z,-5.25
2022-12-18T16:20:01.238Z,-5.17
2022-12-18T16:22:31.425Z,-4.93
2022-12-18T16:25:01.912Z,-5.11
2022-12-18T16:27:31.283Z,-5.18
2022-12-18T16:30:00.651Z,-5.03
2022-12-18T16:32:29.141Z,-4.96
2022-12-18T16:35:02.089Z,-4.85
2022-12-18T16:37:31.608Z,-4.75
2022-12-18T16:40:01.498Z,-5.48
2022-12-18T16:42:30.960Z,-5.60
2022-12-18T16:44:59.528Z,-5.65
2022-12-18T16:47:27.877Z,-5.38
2022-12-18T16:49:56.147Z,-5.42
2022-12-18T16:52:24.602Z,-5.81
2022-12-18T16:54:53.157Z,-5.61
2022-12-18T16:57:25.169Z,-5.58
2022-12-18T16:59:58.756Z,-5.76
2022-12-18T17:02:32.629Z,-5.46
2022-12-18T17:05:01.553Z,-5.49
2022-12-18T17:07:31.721Z,-5.72
2022-12-18T17:10:00.763Z,-5.74
2022-12-18T17:12:31.331Z,-5.82
2022-12-18T17:15:02.319Z,-6.00
2022-12-18T17:17:31.649Z,-5.95
2022-12-18T17:20:00.655Z,-5.84
2022-12-18T17:22:29.367Z,-5.64
2022-12-18T17:24:58.945Z,-5.66
2022-12-18T17:27:28.549Z,-5.49
2022-12-18T17:29:59.738Z,-5.68
2022-12-18T17:32:28.921Z,-6.18
2022-12-18T17:35:00.514Z,-5.93
2022-12-18T17:37:32.931Z,-6.01
2022-12-18T17:40:04.789Z,-6.36
2022-12-18T17:42:33.828Z,-6.64
2022-12-18T17:45:04.889Z,-6.55
2022-12-18T17:47:34.238Z,-6.58
2022-12-18T17:50:03.894Z,-7.05
2022-12-18T17:52:32.666Z,-6.90
2022-12-18T17:55:01.447Z,-6.87
2022-12-18T17:57:30.633Z,-6.95
2022-12-18T17:59:59.369Z,-6.89
2022-12-18T18:02:29.910Z,-6.99
2022-12-18T18:04:59.231Z,-7.16
2022-12-18T18:07:27.912Z,-7.21
2022-12-18T18:09:56.281Z,-7.41
2022-12-18T18:12:42.182Z,-7.28
2022-12-18T18:15:11.215Z,-7.73
2022-12-18T18:17:42.299Z,-7.46
2022-12-18T18:20:12.227Z,-7.70
2022-12-18T18:22:41.618Z,-7.59
2022-12-18T18:25:46.789Z,-7.96
2022-12-18T18:28:23.632Z,-8.03
2022-12-18T18:30:52.868Z,-8.22
2022-12-18T18:33:24.040Z,-8.05
2022-12-18T18:35:54.488Z,-8.08
2022-12-18T18:38:23.820Z,-8.16
2022-12-18T18:41:00.364Z,-8.06
2022-12-18T18:43:29.389Z,-7.99
2022-12-18T18:45:58.157Z,-8.22
2022-12-18T18:48:33.703Z,-8.38
2022-12-18T18:51:07.089Z,-8.39
2022-12-18T18:53:38.441Z,-8.50
2022-12-18T18:56:50.214Z,-8.49
2022-12-18T18:58:58.266Z,-8.31
2022-12-18T19:01:27.606Z,-8.54
2022-12-18T19:03:57.647Z,-8.30
2022-12-18T19:06:27.780Z,-8.13
2022-12-18T19:08:57.133Z,-8.40
2022-12-18T19:11:45.579Z,-8.34
2022-12-18T19:14:14.878Z,-8.47
2022-12-18T19:16:43.574Z,-8.16
2022-12-18T19:19:14.458Z,-8.59
2022-12-18T19:21:43.787Z,-8.52
2022-12-18T19:24:12.326Z,-8.43
2022-12-18T19:26:40.552Z,-8.62
2022-12-18T19:29:09.791Z,-8.51
2022-12-18T19:31:40.154Z,-8.61
2022-12-18T19:34:15.861Z,-8.66
2022-12-18T19:36:44.510Z,-8.75
2022-12-18T19:39:14.361Z,-8.66
2022-12-18T19:41:44.685Z,-8.98
2022-12-18T19:44:15.075Z,-8.78
2022-12-18T19:46:43.634Z,-9.01
2022-12-18T19:49:17.413Z,-8.91
2022-12-18T19:51:47.746Z,-9.13
2022-12-18T19:54:24.234Z,-9.17
2022-12-18T19:56:54.958Z,-9.30
2022-12-18T19:59:23.230Z,-9.38
2022-12-18T20:01:53.580Z,-9.45
2022-12-18T20:04:23.613Z,-9.52
2022-12-18T20:06:52.811Z,-9.78
2022-12-18T20:09:22.092Z,-9.79
2022-12-18T20:11:51.607Z,-9.89
2022-12-18T20:14:23.490Z,-9.70
2022-12-18T20:16:53.473Z,-9.80
2022-12-18T20:19:24.491Z,-10.16
2022-12-18T20:21:53.070Z,-9.89
2022-12-18T20:24:21.590Z,-9.93
2022-12-18T20:26:49.996Z,-10.17
2022-12-18T20:29:19.395Z,-9.97
2022-12-18T20:31:48.472Z,-9.98
2022-12-18T20:34:17.991Z,-10.22
2022-12-18T20:36:48.136Z,-10.10
2022-12-18T20:39:18.230Z,-9.77
2022-12-18T20:41:47.959Z,-10.01
2022-12-18T20:44:22.859Z,-9.86
2022-12-18T20:46:53.878Z,-10.10
2022-12-18T20:49:22.690Z,-9.91
2022-12-18T20:51:53.803Z,-10.12
2022-12-18T20:54:22.918Z,-9.99
2022-12-18T20:56:51.703Z,-9.78
2022-12-18T20:59:27.613Z,-9.69
2022-12-18T21:06:54.233Z,-9.83
2022-12-18T21:09:37.299Z,-9.93
2022-12-18T21:12:25.171Z,-10.03
2022-12-18T21:14:54.184Z,-10.33
2022-12-18T21:17:23.095Z,-10.26
2022-12-18T21:22:44.585Z,-10.06
2022-12-18T21:25:14.139Z,-10.45
2022-12-18T21:27:43.114Z,-10.19
2022-12-18T21:30:12.811Z,-10.09
2022-12-18T21:32:41.989Z,-10.19
2022-12-18T21:35:12.782Z,-10.48
2022-12-18T21:37:43.281Z,-10.11
2022-12-18T21:40:13.433Z,-10.40
2022-12-18T21:43:26.827Z,-10.58
2022-12-18T21:45:57.077Z,-10.62
2022-12-18T21:48:28.340Z,-10.09
2022-12-18T21:50:58.563Z,-10.33
2022-12-18T21:53:30.227Z,-10.35
2022-12-18T21:56:01.908Z,-10.42
2022-12-18T21:58:31.172Z,-10.43
2022-12-18T22:01:01.905Z,-10.44
2022-12-18T22:03:31.237Z,-10.07
2022-12-18T22:06:08.927Z,-10.09
2022-12-18T22:08:43.029Z,-10.15
2022-12-18T22:11:14.865Z,-10.30
2022-12-18T22:13:45.017Z,-10.46
2022-12-18T22:16:13.996Z,-10.36
2022-12-18T22:18:42.810Z,-10.26
2022-12-18T22:21:29.324Z,-10.23
2022-12-18T22:24:00.412Z,-10.39
2022-12-18T22:26:35.033Z,-10.53
2022-12-18T22:29:27.898Z,-10.24
2022-12-18T22:31:57.230Z,-10.11
2022-12-18T22:34:26.296Z,-10.40
2022-12-18T22:36:57.242Z,-10.34
2022-12-18T22:39:28.500Z,-10.48
2022-12-18T22:41:58.101Z,-10.54
2022-12-18T22:44:27.139Z,-10.50
2022-12-18T22:47:00.810Z,-10.53
2022-12-18T22:49:36.193Z,-10.58
2022-12-18T22:52:09.500Z,-10.29
2022-12-18T22:54:39.239Z,-10.50
2022-12-18T22:57:08.034Z,-10.33
2022-12-18T22:59:36.903Z,-10.29
2022-12-18T23:02:05.828Z,-10.34
2022-12-18T23:04:36.533Z,-9.95
2022-12-18T23:07:07.927Z,-10.35
2022-12-18T23:09:37.038Z,-10.44
2022-12-18T23:12:06.244Z,-10.21
2022-12-18T23:14:36.764Z,-10.36
2022-12-18T23:17:05.788Z,-10.36
2022-12-18T23:19:34.839Z,-10.08
2022-12-18T23:22:07.348Z,-10.09
2022-12-18T23:24:41.824Z,-10.25
2022-12-18T23:27:11.589Z,-10.39
2022-12-18T23:29:41.472Z,-10.39
2022-12-18T23:32:10.379Z,-10.44
2022-12-18T23:34:39.100Z,-10.55
2022-12-18T23:37:08.115Z,-10.43
2022-12-18T23:39:36.883Z,-10.64
2022-12-18T23:42:07.699Z,-10.85
2022-12-18T23:44:36.655Z,-10.65
2022-12-18T23:47:07.141Z,-10.63
2022-12-18T23:49:36.658Z,-10.47
2022-12-18T23:52:06.540Z,-10.56
2022-12-18T23:54:39.628Z,-10.22
2022-12-18T23:57:10.149Z,-10.34
2022-12-18T23:59:39.147Z,-10.42
